^^
Saratoga-Weather Station Historical Data
Daily Summary for July 24, 2020 Units:  English    Metric   Both
Daily Weekly Monthly Yearly Custom
  High: Low: Average:
Temperature: 33.4 °F 30.4 °F 32.4 °F
Dew Point: 32.4 °F 29.1 °F 30.9 °F
Humidity: 97% 93% 95%
Wind Speed: 0mph 0mph 0mph
Wind Gust: 3mph - -
Wind- -
Pressure: 30.3 in 30.2 in -
Precipitation: 0 in    
Historical Graphs
 
 
Tabular Data for July 24, 2020
Time Temperature Dew Point Pressure Wind Wind Speed Wind Gust Humidity Rainfall Rate (Hourly) solar
00:02 32.9 °F 31.3 °F 30.3 in Calm     94% 0 in 0 W/m2
00:07 32.9 °F 31.3 °F 30.3 in Calm     94% 0 in 0 W/m2
00:12 32.9 °F 31.3 °F 30.3 in Calm     94% 0 in 0 W/m2
00:17 32.9 °F 31.3 °F 30.3 in Calm     94% 0 in 0 W/m2
00:22 32.9 °F 31.3 °F 30.3 in Calm     94% 0 in 0 W/m2
00:27 32.9 °F 31.3 °F 30.3 in Calm     94% 0 in 0 W/m2
00:32 32.9 °F 31.3 °F 30.3 in Calm     94% 0 in 0 W/m2
00:37 32.9 °F 31.3 °F 30.3 in Calm     94% 0 in 0 W/m2
00:42 32.9 °F 31.3 °F 30.3 in Calm     94% 0 in 0 W/m2
00:47 32.9 °F 31.3 °F 30.3 in Calm     94% 0 in 0 W/m2
00:52 32.9 °F 31.3 °F 30.3 in Calm     94% 0 in 0 W/m2
00:57 32.7 °F 31.1 °F 30.3 in Calm     94% 0 in 0 W/m2
01:02 32.7 °F 31.1 °F 30.3 in Calm     94% 0 in 0 W/m2
01:07 32.7 °F 31.1 °F 30.3 in Calm     94% 0 in 0 W/m2
01:12 32.5 °F 30.9 °F 30.3 in Calm     94% 0 in 0 W/m2
01:17 32.5 °F 30.9 °F 30.3 in Calm     94% 0 in 0 W/m2
01:22 32.5 °F 30.9 °F 30.3 in Calm     94% 0 in 0 W/m2
01:27 32.5 °F 30.9 °F 30.3 in Calm     94% 0 in 0 W/m2
01:32 32.5 °F 30.9 °F 30.3 in Calm   1 mph 94% 0 in 0 W/m2
01:37 32.5 °F 30.9 °F 30.3 in Calm     94% 0 in 0 W/m2
01:42 32.5 °F 30.9 °F 30.3 in Calm   1 mph 94% 0 in 0 W/m2
01:47 32.5 °F 30.9 °F 30.3 in Calm     94% 0 in 0 W/m2
01:52 32.5 °F 30.9 °F 30.3 in Calm     94% 0 in 0 W/m2
01:57 32.5 °F 30.9 °F 30.3 in Calm     94% 0 in 0 W/m2
02:02 32.5 °F 30.9 °F 30.3 in Calm     94% 0 in 0 W/m2
02:07 32.4 °F 30.7 °F 30.3 in Calm     94% 0 in 0 W/m2
02:12 32.4 °F 30.7 °F 30.3 in Calm     94% 0 in 0 W/m2
02:17 32.4 °F 30.6 °F 30.3 in Calm     93% 0 in 0 W/m2
02:22 32.2 °F 30.4 °F 30.3 in Calm     93% 0 in 0 W/m2
02:27 32.2 °F 30.4 °F 30.3 in Calm     93% 0 in 0 W/m2
02:32 32.2 °F 30.6 °F 30.3 in Calm     94% 0 in 0 W/m2
02:37 32.2 °F 30.6 °F 30.3 in Calm     94% 0 in 0 W/m2
02:42 32.2 °F 30.6 °F 30.3 in Calm     94% 0 in 0 W/m2
02:47 32.2 °F 30.6 °F 30.3 in Calm     94% 0 in 0 W/m2
02:52 32.2 °F 30.4 °F 30.3 in Calm     93% 0 in 0 W/m2
02:57 32 °F 30.2 °F 30.3 in Calm     93% 0 in 0 W/m2
03:02 32 °F 30.2 °F 30.3 in Calm     93% 0 in 0 W/m2
03:07 32 °F 30.6 °F 30.3 in Calm     94% 0 in 0 W/m2
03:13 32.2 °F 30.6 °F 30.3 in Calm     94% 0 in 0 W/m2
03:18 32.2 °F 30.6 °F 30.3 in Calm   3 mph 94% 0 in 0 W/m2
03:23 32 °F 30.2 °F 30.3 in Calm     93% 0 in 0 W/m2
03:28 32 °F 30.2 °F 30.3 in Calm   1 mph 93% 0 in 0 W/m2
03:33 31.8 °F 30 °F 30.3 in Calm     93% 0 in 0 W/m2
03:38 32 °F 30.2 °F 30.3 in Calm     93% 0 in 0 W/m2
03:43 31.8 °F 30 °F 30.3 in Calm     93% 0 in 0 W/m2
03:48 31.8 °F 30 °F 30.3 in Calm     93% 0 in 0 W/m2
03:53 31.8 °F 30 °F 30.3 in Calm     93% 0 in 0 W/m2
03:58 31.8 °F 30 °F 30.3 in Calm     93% 0 in 0 W/m2
04:03 31.8 °F 30 °F 30.3 in Calm     93% 0 in 0 W/m2
04:08 31.8 °F 30 °F 30.3 in Calm   1 mph 93% 0 in 0 W/m2
04:13 31.8 °F 30 °F 30.3 in Calm     93% 0 in 0 W/m2
04:18 31.8 °F 30 °F 30.3 in Calm   1 mph 93% 0 in 0 W/m2
04:23 31.8 °F 30 °F 30.3 in Calm     93% 0 in 0 W/m2
04:28 31.8 °F 30 °F 30.3 in Calm     93% 0 in 0 W/m2
04:33 31.8 °F 30 °F 30.3 in Calm     93% 0 in 0 W/m2
04:38 31.8 °F 30 °F 30.3 in Calm     93% 0 in 0 W/m2
04:43 31.6 °F 29.8 °F 30.3 in Calm     93% 0 in 0 W/m2
04:48 31.6 °F 29.8 °F 30.3 in Calm     93% 0 in 0 W/m2
04:53 31.6 °F 29.8 °F 30.2 in Calm     93% 0 in 0 W/m2
04:58 31.8 °F 30 °F 30.2 in Calm     93% 0 in 0 W/m2
05:03 31.8 °F 30 °F 30.2 in Calm     93% 0 in 0 W/m2
05:08 31.8 °F 30 °F 30.3 in Calm     93% 0 in 0 W/m2
05:13 31.6 °F 29.8 °F 30.3 in Calm     93% 0 in 0 W/m2
05:18 31.6 °F 29.8 °F 30.2 in Calm     93% 0 in 0 W/m2
05:23 31.6 °F 29.8 °F 30.2 in Calm     93% 0 in 0 W/m2
05:28 31.6 °F 29.8 °F 30.2 in Calm     93% 0 in 0 W/m2
05:33 31.6 °F 29.8 °F 30.2 in Calm     93% 0 in 0 W/m2
05:38 31.5 °F 29.7 °F 30.2 in Calm     93% 0 in 0 W/m2
05:43 31.5 °F 29.7 °F 30.2 in Calm     93% 0 in 0 W/m2
05:48 31.5 °F 29.7 °F 30.2 in Calm     93% 0 in 0 W/m2
05:53 31.5 °F 29.7 °F 30.3 in Calm     93% 0 in 0 W/m2
05:58 31.5 °F 29.7 °F 30.3 in Calm     93% 0 in 0 W/m2
06:04 31.5 °F 29.7 °F 30.3 in Calm     93% 0 in 0 W/m2
06:09 31.5 °F 29.7 °F 30.2 in Calm     93% 0 in 0 W/m2
06:14 31.5 °F 29.7 °F 30.3 in Calm     93% 0 in 0 W/m2
06:19 31.5 °F 29.7 °F 30.3 in Calm     93% 0 in 0 W/m2
06:24 31.5 °F 29.7 °F 30.3 in Calm     93% 0 in 0 W/m2
06:29 31.5 °F 29.7 °F 30.3 in Calm     93% 0 in 0 W/m2
06:34 31.5 °F 29.7 °F 30.3 in Calm     93% 0 in 0 W/m2
06:39 31.5 °F 30 °F 30.3 in Calm     94% 0 in 0 W/m2
06:44 31.5 °F 29.7 °F 30.3 in Calm     93% 0 in 0 W/m2
06:49 31.5 °F 29.7 °F 30.3 in Calm     93% 0 in 0 W/m2
06:54 31.5 °F 30 °F 30.3 in Calm     94% 0 in 0 W/m2
06:59 31.5 °F 30 °F 30.3 in Calm     94% 0 in 0 W/m2
07:04 31.5 °F 30 °F 30.3 in Calm     94% 0 in 0 W/m2
07:09 31.5 °F 30 °F 30.3 in Calm     94% 0 in 0 W/m2
07:14 31.3 °F 29.8 °F 30.3 in Calm     94% 0 in 0 W/m2
07:19 31.3 °F 29.5 °F 30.3 in Calm     93% 0 in 0 W/m2
07:24 31.3 °F 29.8 °F 30.3 in Calm     94% 0 in 0 W/m2
07:29 31.3 °F 29.8 °F 30.3 in Calm     94% 0 in 0 W/m2
07:34 31.1 °F 29.7 °F 30.3 in Calm     94% 0 in 0 W/m2
07:39 31.3 °F 29.8 °F 30.3 in Calm     94% 0 in 0 W/m2
07:44 31.1 °F 29.7 °F 30.3 in Calm     94% 0 in 0 W/m2
07:49 31.1 °F 29.7 °F 30.3 in Calm     94% 0 in 0 W/m2
07:54 31.1 °F 29.7 °F 30.3 in Calm     94% 0 in 0 W/m2
07:59 30.9 °F 29.5 °F 30.3 in Calm     94% 0 in 0 W/m2
08:04 30.9 °F 29.5 °F 30.3 in Calm     94% 0 in 0 W/m2
08:09 30.9 °F 29.5 °F 30.3 in Calm     94% 0 in 0 W/m2
08:14 30.9 °F 29.5 °F 30.3 in Calm     94% 0 in 0 W/m2
08:19 30.9 °F 29.5 °F 30.3 in Calm     94% 0 in 0 W/m2
08:24 30.9 °F 29.5 °F 30.3 in Calm     94% 0 in 0 W/m2
08:30 30.9 °F 29.5 °F 30.3 in Calm     94% 0 in 0 W/m2
08:35 30.9 °F 29.5 °F 30.3 in Calm     94% 0 in 0 W/m2
08:40 30.7 °F 29.3 °F 30.3 in Calm     94% 0 in 5 W/m2
08:45 30.7 °F 29.3 °F 30.3 in Calm     94% 0 in 5 W/m2
08:50 30.7 °F 29.3 °F 30.3 in Calm   1 mph 94% 0 in 7 W/m2
08:55 30.7 °F 29.5 °F 30.3 in Calm     95% 0 in 7 W/m2
09:00 30.7 °F 29.5 °F 30.3 in Calm     95% 0 in 11 W/m2
09:05 30.6 °F 29.1 °F 30.3 in Calm     94% 0 in 11 W/m2
09:10 30.6 °F 29.1 °F 30.3 in Calm     94% 0 in 12 W/m2
09:15 30.6 °F 29.3 °F 30.3 in Calm     95% 0 in 16 W/m2
09:20 30.6 °F 29.3 °F 30.3 in Calm     95% 0 in 16 W/m2
09:25 30.6 °F 29.3 °F 30.3 in Calm     95% 0 in 18 W/m2
09:30 30.6 °F 29.3 °F 30.3 in Calm     95% 0 in 19 W/m2
09:35 30.4 °F 29.1 °F 30.3 in Calm     95% 0 in 21 W/m2
09:40 30.4 °F 29.1 °F 30.3 in Calm     95% 0 in 23 W/m2
09:45 30.4 °F 29.1 °F 30.3 in Calm     95% 0 in 23 W/m2
09:50 30.6 °F 29.3 °F 30.3 in Calm     95% 0 in 26 W/m2
09:55 30.4 °F 29.1 °F 30.3 in Calm     95% 0 in 28 W/m2
10:00 30.6 °F 29.3 °F 30.3 in Calm     95% 0 in 30 W/m2
10:05 30.6 °F 29.3 °F 30.3 in Calm     95% 0 in 37 W/m2
10:10 30.4 °F 29.1 °F 30.3 in Calm     95% 0 in 37 W/m2
10:15 30.4 °F 29.1 °F 30.3 in Calm   1 mph 95% 0 in 37 W/m2
10:20 30.4 °F 29.1 °F 30.3 in Calm     95% 0 in 39 W/m2
10:25 30.6 °F 29.3 °F 30.3 in Calm     95% 0 in 44 W/m2
10:31 30.6 °F 29.3 °F 30.3 in Calm     95% 0 in 46 W/m2
10:36 30.6 °F 29.3 °F 30.3 in Calm     95% 0 in 49 W/m2
10:41 30.7 °F 29.5 °F 30.3 in Calm     95% 0 in 53 W/m2
10:46 30.7 °F 29.5 °F 30.3 in Calm   1 mph 95% 0 in 56 W/m2
10:51 30.9 °F 29.7 °F 30.3 in Calm     95% 0 in 58 W/m2
10:56 30.9 °F 29.7 °F 30.3 in Calm     95% 0 in 58 W/m2
11:01 30.9 °F 29.7 °F 30.3 in Calm     95% 0 in 62 W/m2
11:06 30.9 °F 29.7 °F 30.3 in Calm     95% 0 in 58 W/m2
11:11 31.1 °F 29.8 °F 30.3 in Calm     95% 0 in 69 W/m2
11:16 31.1 °F 29.8 °F 30.3 in Calm     95% 0 in 70 W/m2
11:21 31.3 °F 30 °F 30.3 in Calm     95% 0 in 72 W/m2
11:26 31.3 °F 30 °F 30.3 in Calm     95% 0 in 74 W/m2
11:31 31.3 °F 30 °F 30.3 in Calm     95% 0 in 72 W/m2
11:36 31.3 °F 30 °F 30.3 in Calm     95% 0 in 72 W/m2
11:41 31.3 °F 30 °F 30.3 in Calm     95% 0 in 74 W/m2
11:46 31.5 °F 30.2 °F 30.2 in Calm     95% 0 in 83 W/m2
11:51 31.5 °F 30.2 °F 30.2 in Calm     95% 0 in 76 W/m2
11:56 31.5 °F 30.2 °F 30.2 in Calm     95% 0 in 77 W/m2
12:01 31.5 °F 30.2 °F 30.2 in Calm     95% 0 in 74 W/m2
12:06 31.5 °F 30.2 °F 30.2 in Calm     95% 0 in 77 W/m2
12:11 31.6 °F 30.4 °F 30.2 in Calm     95% 0 in 83 W/m2
12:16 31.6 °F 30.4 °F 30.2 in Calm     95% 0 in 81 W/m2
12:21 31.6 °F 30.4 °F 30.2 in Calm     95% 0 in 86 W/m2
12:26 31.8 °F 30.6 °F 30.2 in Calm     95% 0 in 84 W/m2
12:31 31.8 °F 30.6 °F 30.2 in Calm     95% 0 in 91 W/m2
12:36 31.8 °F 30.6 °F 30.2 in Calm     95% 0 in 83 W/m2
12:41 31.8 °F 30.6 °F 30.2 in Calm     95% 0 in 83 W/m2
12:46 32 °F 30.7 °F 30.2 in Calm     95% 0 in 91 W/m2
12:51 32.2 °F 30.9 °F 30.2 in Calm     95% 0 in 84 W/m2
12:56 32.2 °F 30.9 °F 30.2 in Calm     95% 0 in 84 W/m2
13:01 32.2 °F 30.9 °F 30.2 in Calm     95% 0 in 86 W/m2
13:06 32.2 °F 30.9 °F 30.2 in Calm     95% 0 in 81 W/m2
13:11 32.2 °F 30.9 °F 30.2 in Calm     95% 0 in 70 W/m2
13:16 32.4 °F 31.1 °F 30.2 in Calm     95% 0 in 70 W/m2
13:21 32.5 °F 31.3 °F 30.2 in Calm     95% 0 in 70 W/m2
13:26 32.5 °F 31.3 °F 30.2 in Calm     95% 0 in 69 W/m2
13:31 32.5 °F 31.3 °F 30.2 in Calm     95% 0 in 74 W/m2
13:36 32.5 °F 31.3 °F 30.2 in Calm     95% 0 in 72 W/m2
13:41 32.5 °F 31.3 °F 30.2 in Calm     95% 0 in 69 W/m2
13:46 32.7 °F 31.5 °F 30.2 in Calm     95% 0 in 65 W/m2
13:52 32.9 °F 31.6 °F 30.2 in Calm     95% 0 in 69 W/m2
13:57 32.9 °F 31.6 °F 30.2 in Calm     95% 0 in 72 W/m2
14:02 33.1 °F 31.8 °F 30.2 in Calm     95% 0 in 76 W/m2
14:07 33.1 °F 31.8 °F 30.2 in Calm     95% 0 in 67 W/m2
14:12 33.1 °F 31.8 °F 30.2 in Calm     95% 0 in 74 W/m2
14:17 33.1 °F 31.8 °F 30.2 in Calm     95% 0 in 67 W/m2
14:22 33.1 °F 31.8 °F 30.2 in Calm     95% 0 in 62 W/m2
14:27 33.1 °F 31.8 °F 30.2 in Calm     95% 0 in 65 W/m2
14:32 33.1 °F 31.8 °F 30.2 in Calm     95% 0 in 63 W/m2
14:37 33.1 °F 31.8 °F 30.2 in Calm     95% 0 in 65 W/m2
14:42 33.3 °F 32 °F 30.2 in Calm     95% 0 in 56 W/m2
14:47 33.3 °F 32 °F 30.2 in Calm     95% 0 in 58 W/m2
14:52 33.3 °F 32 °F 30.2 in Calm     95% 0 in 60 W/m2
14:57 33.3 °F 32 °F 30.2 in Calm     95% 0 in 58 W/m2
15:02 33.4 °F 32.2 °F 30.2 in Calm     95% 0 in 56 W/m2
15:07 33.4 °F 32.2 °F 30.2 in Calm     95% 0 in 56 W/m2
15:12 33.4 °F 32.2 °F 30.2 in Calm     95% 0 in 49 W/m2
15:17 33.4 °F 32.2 °F 30.2 in Calm     95% 0 in 53 W/m2
15:22 33.4 °F 32.2 °F 30.2 in Calm     95% 0 in 53 W/m2
15:27 33.4 °F 32.2 °F 30.2 in Calm     95% 0 in 49 W/m2
15:32 33.4 °F 32.2 °F 30.2 in Calm     95% 0 in 40 W/m2
15:37 33.4 °F 32.2 °F 30.2 in Calm     95% 0 in 47 W/m2
15:42 33.4 °F 32.2 °F 30.2 in Calm     95% 0 in 42 W/m2
15:47 33.4 °F 32.2 °F 30.2 in Calm     95% 0 in 39 W/m2
15:52 33.4 °F 32.2 °F 30.2 in Calm     95% 0 in 46 W/m2
15:57 33.3 °F 32 °F 30.2 in Calm     95% 0 in 40 W/m2
16:02 33.3 °F 32 °F 30.2 in Calm     95% 0 in 32 W/m2
16:07 33.3 °F 32 °F 30.2 in Calm     95% 0 in 26 W/m2
16:12 33.3 °F 32 °F 30.2 in Calm     95% 0 in 28 W/m2
16:17 33.3 °F 32 °F 30.2 in Calm     95% 0 in 28 W/m2
16:22 33.3 °F 32 °F 30.2 in Calm     95% 0 in 23 W/m2
16:27 33.3 °F 32 °F 30.2 in Calm     95% 0 in 19 W/m2
16:32 33.3 °F 32 °F 30.2 in Calm     95% 0 in 16 W/m2
16:37 33.3 °F 32 °F 30.2 in Calm     95% 0 in 14 W/m2
16:42 33.3 °F 32 °F 30.2 in Calm     95% 0 in 11 W/m2
16:47 33.3 °F 32 °F 30.2 in Calm     95% 0 in 9 W/m2
16:52 33.3 °F 32 °F 30.2 in Calm     95% 0 in 7 W/m2
16:57 33.3 °F 32 °F 30.2 in Calm     95% 0 in 5 W/m2
17:02 33.3 °F 32 °F 30.2 in Calm     95% 0 in 5 W/m2
17:07 33.3 °F 32 °F 30.2 in Calm     95% 0 in 0 W/m2
17:12 33.3 °F 32 °F 30.2 in Calm     95% 0 in 0 W/m2
17:17 33.3 °F 32 °F 30.2 in Calm     95% 0 in 0 W/m2
17:22 33.3 °F 32 °F 30.2 in Calm     95% 0 in 0 W/m2
17:27 33.3 °F 32 °F 30.2 in Calm     95% 0 in 0 W/m2
17:32 33.3 °F 32 °F 30.2 in Calm     95% 0 in 0 W/m2
17:37 33.3 °F 32 °F 30.2 in Calm     95% 0 in 0 W/m2
17:42 33.3 °F 32 °F 30.2 in Calm     95% 0 in 0 W/m2
17:47 33.4 °F 32.2 °F 30.2 in Calm     95% 0 in 0 W/m2
17:52 33.4 °F 32.2 °F 30.2 in Calm     95% 0 in 0 W/m2
17:57 33.4 °F 32.2 °F 30.2 in Calm     95% 0 in 0 W/m2
18:02 33.4 °F 32.2 °F 30.2 in Calm     95% 0 in 0 W/m2
18:07 33.4 °F 32.2 °F 30.2 in Calm     95% 0 in 0 W/m2
18:12 33.4 °F 32.2 °F 30.2 in Calm     95% 0 in 0 W/m2
18:17 33.4 °F 32.2 °F 30.2 in Calm     95% 0 in 0 W/m2
18:22 33.4 °F 32.2 °F 30.2 in Calm     95% 0 in 0 W/m2
18:27 33.4 °F 32.4 °F 30.2 in Calm     96% 0 in 0 W/m2
18:32 33.4 °F 32.4 °F 30.2 in Calm     96% 0 in 0 W/m2
18:37 33.4 °F 32.4 °F 30.2 in Calm     96% 0 in 0 W/m2
18:42 33.4 °F 32.4 °F 30.2 in Calm     96% 0 in 0 W/m2
18:47 33.4 °F 32.4 °F 30.2 in Calm     96% 0 in 0 W/m2
18:53 33.4 °F 32.4 °F 30.2 in Calm     96% 0 in 0 W/m2
18:58 33.4 °F 32.4 °F 30.2 in Calm     96% 0 in 0 W/m2
19:03 33.4 °F 32.4 °F 30.2 in Calm     96% 0 in 0 W/m2
19:08 33.4 °F 32.4 °F 30.2 in Calm     96% 0 in 0 W/m2
19:13 33.4 °F 32.4 °F 30.2 in Calm     96% 0 in 0 W/m2
19:18 33.4 °F 32.4 °F 30.2 in Calm     96% 0 in 0 W/m2
19:23 33.4 °F 32.4 °F 30.2 in Calm     96% 0 in 0 W/m2
19:28 33.4 °F 32.4 °F 30.2 in Calm     96% 0 in 0 W/m2
19:33 33.4 °F 32.4 °F 30.2 in Calm     96% 0 in 0 W/m2
19:38 33.4 °F 32.4 °F 30.2 in Calm     96% 0 in 0 W/m2
19:43 33.4 °F 32.4 °F 30.2 in Calm     96% 0 in 0 W/m2
19:48 33.3 °F 32.2 °F 30.2 in Calm     96% 0 in 0 W/m2
19:53 33.4 °F 32.4 °F 30.2 in Calm     96% 0 in 0 W/m2
19:58 33.4 °F 32.4 °F 30.2 in Calm     96% 0 in 0 W/m2
20:03 33.4 °F 32.4 °F 30.2 in Calm     96% 0 in 0 W/m2
20:08 33.4 °F 32.4 °F 30.2 in Calm     96% 0 in 0 W/m2
20:13 33.4 °F 32.4 °F 30.2 in Calm     96% 0 in 0 W/m2
20:18 33.4 °F 32.4 °F 30.2 in Calm     96% 0 in 0 W/m2
20:23 33.4 °F 32.4 °F 30.2 in Calm     96% 0 in 0 W/m2
20:28 33.4 °F 32.4 °F 30.2 in Calm     96% 0 in 0 W/m2
20:33 33.4 °F 32.4 °F 30.2 in Calm     96% 0 in 0 W/m2
20:38 33.3 °F 32.2 °F 30.2 in Calm     96% 0 in 0 W/m2
20:43 33.3 °F 32.2 °F 30.2 in Calm     96% 0 in 0 W/m2
20:48 33.3 °F 32.2 °F 30.2 in Calm     96% 0 in 0 W/m2
20:53 33.3 °F 32.2 °F 30.2 in Calm     96% 0 in 0 W/m2
20:58 33.3 °F 32.2 °F 30.2 in Calm     96% 0 in 0 W/m2
21:03 33.3 °F 32.2 °F 30.2 in Calm     96% 0 in 0 W/m2
21:08 33.3 °F 32.2 °F 30.2 in Calm     96% 0 in 0 W/m2
21:13 33.3 °F 32.2 °F 30.2 in Calm     96% 0 in 0 W/m2
21:18 33.3 °F 32.2 °F 30.2 in Calm     96% 0 in 0 W/m2
21:23 33.3 °F 32.2 °F 30.2 in Calm     96% 0 in 0 W/m2
21:28 33.3 °F 32.2 °F 30.2 in Calm     96% 0 in 0 W/m2
21:33 33.3 °F 32.2 °F 30.2 in Calm     96% 0 in 0 W/m2
21:38 33.3 °F 32.2 °F 30.2 in Calm     96% 0 in 0 W/m2
21:43 33.3 °F 32.2 °F 30.2 in Calm     96% 0 in 0 W/m2
21:48 33.1 °F 32 °F 30.2 in Calm     96% 0 in 0 W/m2
21:53 33.1 °F 32 °F 30.2 in Calm     96% 0 in 0 W/m2
21:58 33.1 °F 32 °F 30.2 in Calm     96% 0 in 0 W/m2
22:03 32.9 °F 31.8 °F 30.2 in Calm     96% 0 in 0 W/m2
22:08 32.7 °F 31.6 °F 30.2 in Calm     96% 0 in 0 W/m2
22:13 32.5 °F 31.5 °F 30.2 in Calm     96% 0 in 0 W/m2
22:18 32.5 °F 31.5 °F 30.2 in Calm     96% 0 in 0 W/m2
22:23 32.4 °F 31.3 °F 30.2 in Calm     96% 0 in 0 W/m2
22:28 32.4 °F 31.3 °F 30.2 in Calm     96% 0 in 0 W/m2
22:33 32.4 °F 31.3 °F 30.2 in Calm     96% 0 in 0 W/m2
22:38 32.4 °F 31.3 °F 30.2 in Calm     96% 0 in 0 W/m2
22:43 32.4 °F 31.3 °F 30.2 in Calm     96% 0 in 0 W/m2
22:48 32.4 °F 31.3 °F 30.2 in Calm     96% 0 in 0 W/m2
22:53 32.4 °F 31.3 °F 30.2 in Calm     96% 0 in 0 W/m2
22:58 32.4 °F 31.3 °F 30.2 in Calm     96% 0 in 0 W/m2
23:03 32.4 °F 31.3 °F 30.2 in Calm     96% 0 in 0 W/m2
23:08 32.4 °F 31.3 °F 30.2 in Calm     96% 0 in 0 W/m2
23:13 32.4 °F 31.6 °F 30.2 in Calm     97% 0 in 0 W/m2
23:18 32.4 °F 31.6 °F 30.2 in Calm     97% 0 in 0 W/m2
23:23 32.5 °F 31.8 °F 30.2 in Calm     97% 0 in 0 W/m2
23:28 32.5 °F 31.8 °F 30.2 in Calm     97% 0 in 0 W/m2
23:33 32.5 °F 31.8 °F 30.2 in Calm     97% 0 in 0 W/m2
23:38 32.5 °F 31.8 °F 30.2 in Calm     97% 0 in 0 W/m2
23:43 32.5 °F 31.8 °F 30.2 in Calm     97% 0 in 0 W/m2
23:48 32.5 °F 31.8 °F 30.2 in Calm     97% 0 in 0 W/m2
23:53 32.5 °F 31.8 °F 30.2 in Calm     97% 0 in 0 W/m2
23:58 32.5 °F 31.8 °F 30.2 in Calm     97% 0 in 0 W/m2
Juneau County Weather
Compliments of Weather Underground - 4 mb